Bellevue, WA (98008)

10:12 PM PDT on August 19, 2014 (GMT -0700)
APRSWXNET Bellevue WA US | Change Station
CLOSE
Current Station
Personal Weather Station
Location: Bellevue, WA
Elevation: 262 ft
Nearby Weather Stations

Elev 262 ft 47.58 °N, 122.12 °W | Updated 42 minutes ago

Overcast
Overcast
70 °F
Feels Like 70 °F
N
2
Wind Variable Wind from ESE
Gusts 4.0 mph

Today
High -- | Low -- °F
--% Chance of Precip.
Yesterday
High -- | Low -- °F
Precip. -- in
6:09 AM 8:13 PM
Waning Crescent, 24% visible
Pressure 29.84 in
Visibility 10.0 miles
Clouds Overcast 4100 ft
Dew Point 59 °F
Humidity 68%
Rainfall 0.00 in
Snow Depth Not available.
UV 0 out of 12
Pollen 3.50 out of 12
Air Quality Not available.
Flu Activity Not available.
METAR KRNT 200453Z AUTO 17007KT 10SM OVC041 21/13 A2982 RMK AO2 SLP103 T02060133

More Conditions Fewer Conditions

Pressure 29.84 in
Visibility 10.0 miles
Clouds Overcast 4100 ft
Dew Point 59 °F
Humidity 68%
Rainfall 0.00 in
Snow Depth Not available.
UV 0 out of 12
Pollen 3.50 out of 12
Air Quality Not available.
Flu Activity Not available.
METAR KRNT 200453Z AUTO 17007KT 10SM OVC041 21/13 A2982 RMK AO2 SLP103 T02060133

More Conditions Fewer Conditions

10-Day Weather Forecast

Almanac

Astronomy

Aug. 19, 2014 Rise Set
Actual Time 6:09 AM PDT 8:13 PM PDT
Civil Twilight 5:36 AM PDT 8:46 PM PDT
Nautical Twilight 4:55 AM PDT 9:27 PM PDT
Astronomical Twilight 4:08 AM PDT 10:13 PM PDT
Moon 12:58 AM PDT (8/19) 4:22 PM PDT (8/19)
Length of Visible Light 15h 10m
Length of Day
14h 03m
Tomorrow will be 3m 10s shorter.
Waning Crescent, 24% of the Moon is Illuminated
Aug 20
Waning Crescent
Aug 25
New
Sep 2
First Quarter
Sep 8
Full
Sep 15
Last Quarter

Yesterday's Extremes

State Highs State Lows

Community

WunderPhotos

Upload Photos

1,745,592 photos uploaded!

Nearby

Snow Depth

Station Depth Elevation
Alpine Meadows 0 in 3500 ft
Meadows Pass 0 in 3500 ft
Stampede Pass 2 in 3860 ft
Dungeness 4 in 4100 ft
Stevens Pass 0 in 4070 ft

Earthquake Activity

City Distance Mag. Time & Date
No recent earthquake activity has been reported nearby.
Minimum magnitude displayed is 2.5.

Coastal Water Temperatures

Place Temperature
Port Townsend, WA 53.1 °F
Seattle, WA 55.9 °F
Friday Harbor, WA 55.0 °F
Tacoma, WA 55.9 °F

Nearby Weather Stations